Time;durP1;ratioP1;P1;durP2;ratioP2;P2;SDS_P1;SDS_P2;PMS_P1;PMS_P2;Temp;Humidity;BMP_temperature;BMP_pressure;BME280_temperature;BME280_humidity;BME280_pressure;Samples;Min_cycle;Max_cycle;Signal;HPM_P1;HPM_P2
2021/11/01 00:01:09;;;;;;;13.77;12.63;;;;;;;;;;5029281;28;20041;-45
2021/11/01 00:03:36;;;;;;;14.63;13.38;;;;;;;;;;5030469;28;20037;-44
2021/11/01 00:06:05;;;;;;;14.25;12.88;;;;;;;;;;5032512;28;20576;-47
2021/11/01 00:08:33;;;;;;;12.90;12.00;;;;;;;;;;5029800;28;20212;-44
2021/11/01 00:11:00;;;;;;;12.93;11.70;;;;;;;;;;5031385;28;20042;-44
2021/11/01 00:13:26;;;;;;;13.50;12.55;;;;;;;;;;5030269;28;20037;-44
2021/11/01 00:15:53;;;;;;;12.90;11.57;;;;;;;;;;5030333;28;20030;-43
2021/11/01 00:18:20;;;;;;;12.60;11.52;;;;;;;;;;5029670;28;20045;-41
2021/11/01 00:20:47;;;;;;;13.43;12.55;;;;;;;;;;5031491;28;20044;-44
2021/11/01 00:23:13;;;;;;;12.50;11.57;;;;;;;;;;5031063;28;20053;-45
2021/11/01 00:25:40;;;;;;;11.90;10.98;;;;;;;;;;5030557;28;20056;-42
2021/11/01 00:28:08;;;;;;;14.27;13.13;;;;;;;;;;5024040;28;20065;-43
2021/11/01 00:30:35;;;;;;;16.75;14.70;;;;;;;;;;5025528;28;20062;-43
2021/11/01 00:33:02;;;;;;;16.48;14.90;;;;;;;;;;5029190;28;20045;-43
2021/11/01 00:35:29;;;;;;;18.48;15.40;;;;;;;;;;5030415;28;20053;-42
2021/11/01 00:37:55;;;;;;;23.63;20.05;;;;;;;;;;5030713;28;20053;-44
2021/11/01 00:40:22;;;;;;;22.10;19.75;;;;;;;;;;5031149;28;20040;-45
2021/11/01 00:42:49;;;;;;;20.33;18.33;;;;;;;;;;5026546;28;20053;-44
2021/11/01 00:45:15;;;;;;;22.52;18.83;;;;;;;;;;5019398;28;20099;-45
2021/11/01 00:47:42;;;;;;;19.15;17.15;;;;;;;;;;5023238;28;20037;-45
2021/11/01 00:50:09;;;;;;;18.10;16.42;;;;;;;;;;5019267;28;20048;-43
2021/11/01 00:52:36;;;;;;;17.67;15.90;;;;;;;;;;5031455;28;20037;-42
2021/11/01 00:55:06;;;;;;;17.98;16.17;;;;;;;;;;5029997;28;20080;-46
2021/11/01 00:57:33;;;;;;;16.85;15.38;;;;;;;;;;5030905;28;20041;-43
2021/11/01 01:00:00;;;;;;;18.23;16.58;;;;;;;;;;5023976;28;20058;-46
2021/11/01 01:02:31;;;;;;;17.95;16.10;;;;;;;;;;5028973;28;20095;-45
2021/11/01 01:04:59;;;;;;;20.33;18.25;;;;;;;;;;5030114;28;20049;-45
2021/11/01 01:07:28;;;;;;;27.33;23.35;;;;;;;;;;5026816;28;20460;-47
2021/11/01 01:09:54;;;;;;;18.63;16.95;;;;;;;;;;5023777;28;20057;-42
2021/11/01 01:12:21;;;;;;;18.95;17.25;;;;;;;;;;5033192;28;20051;-45
2021/11/01 01:14:57;;;;;;;16.77;15.38;;;;;;;;;;5039500;28;20100;-43
2021/11/01 01:17:26;;;;;;;18.67;16.98;;;;;;;;;;5028780;28;20042;-45
2021/11/01 01:22:30;;;;;;;18.65;17.02;;;;;;;;;;5024794;28;20057;-42
2021/11/01 01:25:02;;;;;;;17.02;15.52;;;;;;;;;;5025849;28;20474;-44
2021/11/01 01:27:29;;;;;;;18.90;17.10;;;;;;;;;;5042089;28;20069;-44
2021/11/01 01:29:56;;;;;;;17.77;16.08;;;;;;;;;;5028603;28;20061;-43
2021/11/01 01:32:23;;;;;;;16.40;14.82;;;;;;;;;;5030247;28;20037;-42
2021/11/01 01:34:49;;;;;;;17.48;15.77;;;;;;;;;;5022342;28;20426;-43
2021/11/01 01:37:16;;;;;;;16.80;15.35;;;;;;;;;;5027162;28;20712;-42
2021/11/01 01:39:43;;;;;;;17.00;15.45;;;;;;;;;;5037094;28;20061;-44
2021/11/01 01:42:10;;;;;;;16.65;14.63;;;;;;;;;;5028502;28;20456;-46
2021/11/01 01:44:38;;;;;;;16.15;14.82;;;;;;;;;;5028846;28;20041;-44
2021/11/01 01:47:06;;;;;;;17.88;15.95;;;;;;;;;;5029222;28;20500;-44
2021/11/01 01:49:34;;;;;;;17.63;15.98;;;;;;;;;;5027659;28;20673;-44
2021/11/01 01:52:00;;;;;;;17.20;15.60;;;;;;;;;;5029936;28;20547;-44
2021/11/01 01:54:27;;;;;;;18.02;16.35;;;;;;;;;;5027951;28;20099;-43
2021/11/01 01:56:54;;;;;;;17.92;16.17;;;;;;;;;;5028428;28;20045;-43
2021/11/01 01:59:21;;;;;;;18.55;16.65;;;;;;;;;;5029495;28;20045;-44
2021/11/01 02:01:48;;;;;;;19.00;16.98;;;;;;;;;;5030176;28;20045;-46
2021/11/01 02:04:18;;;;;;;18.83;17.08;;;;;;;;;;5035361;28;20048;-43
2021/11/01 02:06:54;;;;;;;20.88;15.65;;;;;;;;;;5028510;28;20542;-43
2021/11/01 02:09:23;;;;;;;18.77;16.73;;;;;;;;;;5028527;28;20068;-44
2021/11/01 02:12:13;;;;;;;19.23;17.50;;;;;;;;;;5028735;28;20033;-42
2021/11/01 02:14:44;;;;;;;18.88;17.08;;;;;;;;;;5037127;28;20104;-44
2021/11/01 02:17:16;;;;;;;18.67;16.83;;;;;;;;;;5020590;28;20041;-43
2021/11/01 02:19:48;;;;;;;18.27;16.40;;;;;;;;;;5019660;28;20034;-47
2021/11/01 02:22:17;;;;;;;18.00;16.30;;;;;;;;;;5023505;28;20041;-43
2021/11/01 02:24:52;;;;;;;20.55;18.65;;;;;;;;;;5029922;28;20065;-43
2021/11/01 02:27:19;;;;;;;18.45;16.73;;;;;;;;;;5027618;28;20038;-46
2021/11/01 02:29:47;;;;;;;16.50;15.25;;;;;;;;;;5028131;28;20047;-44
2021/11/01 02:32:14;;;;;;;18.23;16.70;;;;;;;;;;5029764;28;20105;-43
2021/11/01 02:34:43;;;;;;;16.83;15.23;;;;;;;;;;5028709;28;20033;-43
2021/11/01 02:37:10;;;;;;;16.13;14.45;;;;;;;;;;5037171;28;20621;-43
2021/11/01 02:39:50;;;;;;;16.20;14.82;;;;;;;;;;5028692;28;20116;-43
2021/11/01 02:42:18;;;;;;;17.85;16.33;;;;;;;;;;5019455;28;20477;-44
2021/11/01 02:44:52;;;;;;;16.13;14.63;;;;;;;;;;5026189;28;20084;-45
2021/11/01 02:47:20;;;;;;;17.27;16.00;;;;;;;;;;5026230;28;20052;-46
2021/11/01 02:49:46;;;;;;;15.48;14.40;;;;;;;;;;5034976;28;20570;-44
2021/11/01 02:52:13;;;;;;;15.23;14.00;;;;;;;;;;5030259;28;20049;-44
2021/11/01 02:54:40;;;;;;;19.30;17.60;;;;;;;;;;5033644;28;20088;-43
2021/11/01 02:57:07;;;;;;;19.20;16.88;;;;;;;;;;5032575;28;20037;-44
2021/11/01 02:59:34;;;;;;;17.80;16.40;;;;;;;;;;5025537;28;20050;-43
2021/11/01 03:02:01;;;;;;;18.05;16.55;;;;;;;;;;5028602;28;20053;-43
2021/11/01 03:04:28;;;;;;;19.98;18.17;;;;;;;;;;5030381;28;20111;-44
2021/11/01 03:06:57;;;;;;;18.83;16.90;;;;;;;;;;5033074;28;20033;-46
2021/11/01 03:09:24;;;;;;;18.30;16.77;;;;;;;;;;5032957;28;20045;-43
2021/11/01 03:11:51;;;;;;;18.50;16.77;;;;;;;;;;5031460;28;20046;-46
2021/11/01 03:14:20;;;;;;;17.40;16.00;;;;;;;;;;5027280;28;20065;-44
2021/11/01 03:16:50;;;;;;;18.08;16.20;;;;;;;;;;5042590;28;20055;-45
2021/11/01 03:19:21;;;;;;;17.02;15.43;;;;;;;;;;5032261;28;20120;-45
2021/11/01 03:21:48;;;;;;;17.10;15.55;;;;;;;;;;5048155;28;20152;-42
2021/11/01 03:24:16;;;;;;;20.08;18.08;;;;;;;;;;5046324;28;20059;-43
2021/11/01 03:26:44;;;;;;;18.40;16.90;;;;;;;;;;5043171;28;20606;-44
2021/11/01 03:29:11;;;;;;;18.13;16.65;;;;;;;;;;5049464;28;20044;-44
2021/11/01 03:31:39;;;;;;;19.67;17.10;;;;;;;;;;5040890;28;20037;-44
2021/11/01 03:34:08;;;;;;;18.55;16.95;;;;;;;;;;5047587;28;20068;-43
2021/11/01 03:36:36;;;;;;;19.13;17.52;;;;;;;;;;5049096;28;20124;-45
2021/11/01 03:39:05;;;;;;;17.92;16.38;;;;;;;;;;5045163;28;20060;-47
2021/11/01 03:41:33;;;;;;;19.10;17.23;;;;;;;;;;5048751;28;20045;-42
2021/11/01 03:44:06;;;;;;;19.05;17.27;;;;;;;;;;5052657;28;20048;-43
2021/11/01 03:46:42;;;;;;;18.42;16.77;;;;;;;;;;5049330;28;20459;-44
2021/11/01 03:49:09;;;;;;;20.17;18.50;;;;;;;;;;5060372;28;20048;-45
2021/11/01 03:54:07;;;;;;;18.52;16.92;;;;;;;;;;5043390;28;20560;-45
2021/11/01 03:56:35;;;;;;;19.88;18.25;;;;;;;;;;5044823;28;20127;-44
2021/11/01 03:59:02;;;;;;;18.48;16.90;;;;;;;;;;5040829;28;20061;-44
2021/11/01 04:01:29;;;;;;;19.50;17.52;;;;;;;;;;5030987;28;20037;-43
2021/11/01 04:03:56;;;;;;;19.52;18.02;;;;;;;;;;5038191;28;20633;-44
2021/11/01 04:06:23;;;;;;;19.15;17.17;;;;;;;;;;5026132;28;20111;-45
2021/11/01 04:08:50;;;;;;;19.35;17.58;;;;;;;;;;5026159;28;20551;-43
2021/11/01 04:11:17;;;;;;;21.88;19.73;;;;;;;;;;5029026;28;20037;-43
2021/11/01 04:13:44;;;;;;;20.08;18.33;;;;;;;;;;5030751;28;20069;-44
2021/11/01 04:16:14;;;;;;;20.25;18.45;;;;;;;;;;5032063;28;20049;-46
2021/11/01 04:19:04;;;;;;;22.30;18.70;;;;;;;;;;5030509;28;20052;-45
2021/11/01 04:21:31;;;;;;;18.85;17.23;;;;;;;;;;5030378;28;20049;-44
2021/11/01 04:24:00;;;;;;;20.42;18.25;;;;;;;;;;5029948;28;20092;-47
2021/11/01 04:26:27;;;;;;;21.45;19.23;;;;;;;;;;5033513;28;20436;-43
2021/11/01 04:28:55;;;;;;;20.55;18.58;;;;;;;;;;5037416;28;20036;-45
2021/11/01 04:31:30;;;;;;;20.08;18.08;;;;;;;;;;5031991;28;20041;-43
2021/11/01 04:34:01;;;;;;;20.67;18.80;;;;;;;;;;5022444;28;20038;-46
2021/11/01 04:36:29;;;;;;;20.00;18.30;;;;;;;;;;5024647;28;20120;-43
2021/11/01 04:39:17;;;;;;;19.75;18.05;;;;;;;;;;5029907;28;20512;-42
2021/11/01 04:53:09;;;;;;;17.98;16.40;;;;;;;;;;5023736;28;20053;-43
2021/11/01 04:55:36;;;;;;;24.33;18.58;;;;;;;;;;5019871;28;20049;-45
2021/11/01 04:58:04;;;;;;;18.55;16.75;;;;;;;;;;5029660;28;20037;-46
2021/11/01 05:00:31;;;;;;;19.48;17.73;;;;;;;;;;5028649;28;20083;-43
2021/11/01 05:03:05;;;;;;;18.83;17.08;;;;;;;;;;5024151;28;20405;-42
2021/11/01 05:05:33;;;;;;;19.48;17.80;;;;;;;;;;5030220;28;20025;-45
2021/11/01 05:08:01;;;;;;;15.90;14.48;;;;;;;;;;5042881;28;20045;-44
2021/11/01 05:10:51;;;;;;;15.00;13.75;;;;;;;;;;5030204;28;20516;-42
2021/11/01 05:13:21;;;;;;;16.98;15.57;;;;;;;;;;5029828;28;20124;-42
2021/11/01 05:15:51;;;;;;;15.23;14.07;;;;;;;;;;5019936;28;20541;-44
2021/11/01 05:20:57;;;;;;;16.48;15.18;;;;;;;;;;5029472;28;20045;-45
2021/11/01 05:23:31;;;;;;;16.00;14.65;;;;;;;;;;5029690;28;20803;-46
2021/11/01 05:26:05;;;;;;;17.10;15.63;;;;;;;;;;5028088;28;20046;-43
2021/11/01 05:28:47;;;;;;;15.38;13.95;;;;;;;;;;5012086;28;20568;-45
2021/11/01 05:31:17;;;;;;;15.05;14.00;;;;;;;;;;5022458;28;20056;-44
2021/11/01 05:34:08;;;;;;;14.63;13.57;;;;;;;;;;5020978;28;20120;-43
2021/11/01 05:36:35;;;;;;;15.25;14.10;;;;;;;;;;5030528;28;20072;-43
2021/11/01 05:39:02;;;;;;;16.75;15.23;;;;;;;;;;5030130;28;20053;-43
2021/11/01 05:41:29;;;;;;;15.38;14.18;;;;;;;;;;5026660;28;20116;-44
2021/11/01 05:43:56;;;;;;;18.40;16.52;;;;;;;;;;5024257;28;20052;-46
2021/11/01 05:46:25;;;;;;;18.77;17.30;;;;;;;;;;5021299;28;20038;-44
2021/11/01 05:48:53;;;;;;;19.35;17.40;;;;;;;;;;5027925;28;20042;-43
2021/11/01 05:51:22;;;;;;;19.60;18.10;;;;;;;;;;5028914;28;20042;-46
2021/11/01 05:53:52;;;;;;;19.35;17.55;;;;;;;;;;5025467;28;20045;-44
2021/11/01 06:14:59;;;;;;;22.17;19.75;;;;;;;;;;5025509;28;20053;-45
2021/11/01 06:17:26;;;;;;;25.58;21.02;;;;;;;;;;5025958;28;20385;-43
2021/11/01 06:19:53;;;;;;;21.45;19.30;;;;;;;;;;5026764;28;20053;-47
2021/11/01 06:22:20;;;;;;;19.77;17.92;;;;;;;;;;5022273;28;20437;-44
2021/11/01 06:25:20;;;;;;;20.13;18.30;;;;;;;;;;5026828;28;20052;-43
2021/11/01 06:27:40;;;;;;;19.98;18.17;;;;;;;;;;5017968;28;20049;-44
2021/11/01 06:32:39;;;;;;;19.00;17.33;;;;;;;;;;5032522;28;20045;-44
2021/11/01 06:49:43;;;;;;;17.60;16.23;;;;;;;;;;5032157;28;20053;-43
2021/11/01 07:16:06;;;;;;;24.02;21.65;;;;;;;;;;5037877;28;20064;-45
2021/11/01 07:18:42;;;;;;;24.45;22.08;;;;;;;;;;5029436;28;20046;-44
2021/11/01 08:24:56;;;;;;;19.50;17.80;;;;;;;;;;5024925;28;20029;-46
2021/11/01 08:43:25;;;;;;;18.67;17.23;;;;;;;;;;5027933;28;20390;-46
2021/11/01 09:13:15;;;;;;;17.35;14.00;;;;;;;;;;5030435;28;20045;-55
2021/11/01 09:18:51;;;;;;;16.85;15.55;;;;;;;;;;5015008;28;20037;-57
2021/11/01 09:23:52;;;;;;;20.13;18.02;;;;;;;;;;5029762;28;20040;-56
2021/11/01 09:37:04;;;;;;;24.30;22.05;;;;;;;;;;5025538;28;20049;-57
2021/11/01 09:42:16;;;;;;;20.45;18.50;;;;;;;;;;5017450;28;20055;-57
2021/11/01 09:44:46;;;;;;;21.38;19.52;;;;;;;;;;5025539;28;20103;-56
2021/11/01 09:47:14;;;;;;;18.65;17.05;;;;;;;;;;5026342;28;20139;-56
2021/11/01 09:49:41;;;;;;;14.98;13.80;;;;;;;;;;5026247;28;20136;-55
2021/11/01 09:52:10;;;;;;;14.95;13.77;;;;;;;;;;5028809;28;20050;-54
2021/11/01 09:54:38;;;;;;;14.90;13.80;;;;;;;;;;5037184;28;20428;-56
2021/11/01 09:57:09;;;;;;;17.90;16.38;;;;;;;;;;5033879;28;20461;-56
2021/11/01 09:59:38;;;;;;;19.75;17.92;;;;;;;;;;5030443;28;20045;-56
2021/11/01 10:02:17;;;;;;;21.23;19.00;;;;;;;;;;5027134;28;20080;-55
2021/11/01 10:04:48;;;;;;;22.25;18.77;;;;;;;;;;5027939;28;20072;-56
2021/11/01 10:07:34;;;;;;;23.48;20.38;;;;;;;;;;5038860;28;20037;-56
2021/11/01 10:10:05;;;;;;;53.85;30.98;;;;;;;;;;5025341;28;20038;-55
2021/11/01 10:12:35;;;;;;;34.72;30.95;;;;;;;;;;5020472;28;20049;-54
2021/11/01 10:17:59;;;;;;;30.48;27.27;;;;;;;;;;5028247;28;20046;-55
2021/11/01 10:20:27;;;;;;;37.63;31.20;;;;;;;;;;5036747;28;20430;-56
2021/11/01 10:22:54;;;;;;;34.10;30.85;;;;;;;;;;5027430;28;20069;-57
2021/11/01 10:25:22;;;;;;;33.15;29.80;;;;;;;;;;5030884;28;20092;-57
2021/11/01 10:27:56;;;;;;;31.40;28.23;;;;;;;;;;5027237;28;20049;-55
2021/11/01 10:30:25;;;;;;;30.50;27.45;;;;;;;;;;5027056;28;20478;-55
2021/11/01 10:32:52;;;;;;;42.22;37.67;;;;;;;;;;5028134;28;20045;-55
2021/11/01 10:35:30;;;;;;;26.73;24.00;;;;;;;;;;5024434;28;20526;-54
2021/11/01 10:38:15;;;;;;;30.42;26.92;;;;;;;;;;5027411;28;20053;-55
2021/11/01 10:41:13;;;;;;;28.27;25.35;;;;;;;;;;5026168;28;20045;-54
2021/11/01 11:11:31;;;;;;;17.45;15.60;;;;;;;;;;5034577;28;20038;-55
2021/11/01 11:47:10;;;;;;;24.60;22.38;;;;;;;;;;5048918;28;20479;-54
2021/11/01 11:49:37;;;;;;;30.95;27.00;;;;;;;;;;5035529;28;20481;-54
2021/11/01 11:52:10;;;;;;;27.63;24.95;;;;;;;;;;5048958;28;20084;-55
2021/11/01 11:54:41;;;;;;;15.05;13.90;;;;;;;;;;5043271;28;20389;-53
2021/11/01 11:57:17;;;;;;;17.27;15.48;;;;;;;;;;5053029;28;20045;-53
2021/11/01 11:59:46;;;;;;;16.50;15.00;;;;;;;;;;5048686;28;20056;-55
2021/11/01 12:02:13;;;;;;;14.93;13.52;;;;;;;;;;5049306;28;20102;-55
2021/11/01 12:04:50;;;;;;;15.25;13.93;;;;;;;;;;5058602;28;20064;-55
2021/11/01 12:07:17;;;;;;;11.73;10.93;;;;;;;;;;5030627;28;20057;-55
2021/11/01 12:09:53;;;;;;;12.45;11.40;;;;;;;;;;5026204;28;20104;-54
2021/11/01 12:12:50;;;;;;;18.92;17.27;;;;;;;;;;5029462;28;20384;-55
2021/11/01 12:18:27;;;;;;;19.08;17.27;;;;;;;;;;5028881;28;20485;-54
2021/11/01 12:20:58;;;;;;;16.23;14.73;;;;;;;;;;5029653;28;20220;-54
2021/11/01 12:23:39;;;;;;;14.23;13.25;;;;;;;;;;5022949;28;20114;-53
2021/11/01 12:26:24;;;;;;;13.40;12.40;;;;;;;;;;5022613;28;20121;-54
2021/11/01 12:29:01;;;;;;;13.25;12.25;;;;;;;;;;5025501;28;20367;-54
2021/11/01 12:31:28;;;;;;;15.40;13.98;;;;;;;;;;5016724;28;20045;-54
2021/11/01 12:34:05;;;;;;;16.85;15.50;;;;;;;;;;5036085;28;20037;-54
2021/11/01 12:39:13;;;;;;;14.52;13.32;;;;;;;;;;5022723;28;20509;-55
2021/11/01 12:42:04;;;;;;;13.27;12.20;;;;;;;;;;5026334;28;20045;-54
2021/11/01 12:57:42;;;;;;;17.33;15.73;;;;;;;;;;5023562;28;20038;-54
2021/11/01 13:00:09;;;;;;;16.70;15.07;;;;;;;;;;5030973;28;20064;-54
2021/11/01 13:02:39;;;;;;;13.63;12.73;;;;;;;;;;5027545;28;20062;-54
2021/11/01 13:05:08;;;;;;;12.32;11.60;;;;;;;;;;5027411;28;20034;-54
2021/11/01 13:20:46;;;;;;;12.85;11.75;;;;;;;;;;5031216;28;20040;-55
2021/11/01 13:23:14;;;;;;;12.38;11.48;;;;;;;;;;5026149;28;20053;-53
2021/11/01 13:28:27;;;;;;;10.98;10.13;;;;;;;;;;5028403;28;20045;-53
2021/11/01 13:36:38;;;;;;;8.10;7.40;;;;;;;;;;5028483;28;20040;-52
2021/11/01 13:39:07;;;;;;;7.07;6.68;;;;;;;;;;5025387;28;20049;-53
2021/11/01 13:41:35;;;;;;;7.55;7.25;;;;;;;;;;5030049;28;20041;-51
2021/11/01 13:44:05;;;;;;;8.10;7.60;;;;;;;;;;5031847;28;20046;-52
2021/11/01 13:46:32;;;;;;;8.05;7.75;;;;;;;;;;5028424;28;20137;-53
2021/11/01 13:48:59;;;;;;;8.23;7.82;;;;;;;;;;5026084;28;20404;-53
2021/11/01 13:51:30;;;;;;;8.63;7.97;;;;;;;;;;5019379;28;20041;-54
2021/11/01 13:56:34;;;;;;;7.20;6.80;;;;;;;;;;5016829;28;20037;-53
2021/11/01 13:59:09;;;;;;;8.13;7.45;;;;;;;;;;5018233;28;20088;-53
2021/11/01 14:12:42;;;;;;;9.13;8.73;;;;;;;;;;5027203;28;20068;-53
2021/11/01 14:15:25;;;;;;;10.23;9.57;;;;;;;;;;5029318;28;20049;-53
2021/11/01 14:36:45;;;;;;;4.47;4.38;;;;;;;;;;5024768;28;19925;-53
2021/11/01 14:58:52;;;;;;;2.45;2.35;;;;;;;;;;5030620;28;20103;-53
2021/11/01 15:06:54;;;;;;;7.47;7.18;;;;;;;;;;5031916;28;20072;-54
2021/11/01 15:14:56;;;;;;;3.67;3.53;;;;;;;;;;5031967;28;20061;-53
2021/11/01 15:17:37;;;;;;;;;;;;;;;;;;5031370;28;20342;-53
2021/11/01 15:22:51;;;;;;;4.13;3.70;;;;;;;;;;5037577;28;20128;-53
2021/11/01 15:41:31;;;;;;;3.47;3.38;;;;;;;;;;5031366;28;20046;-54
2021/11/01 16:19:12;;;;;;;2.72;2.72;;;;;;;;;;5029776;28;20068;-54
2021/11/01 16:21:39;;;;;;;3.33;3.22;;;;;;;;;;5029434;28;20054;-52
2021/11/01 16:24:05;;;;;;;3.83;3.72;;;;;;;;;;5026329;28;20382;-54
2021/11/01 16:26:35;;;;;;;3.80;3.70;;;;;;;;;;5030767;28;20128;-54
2021/11/01 16:29:11;;;;;;;4.32;4.22;;;;;;;;;;5024282;28;20041;-54
2021/11/01 16:31:56;;;;;;;4.35;4.18;;;;;;;;;;5019795;28;20363;-54
2021/11/01 16:34:30;;;;;;;6.65;5.93;;;;;;;;;;5029415;28;20048;-53
2021/11/01 16:39:25;;;;;;;3.55;3.45;;;;;;;;;;5017506;28;20060;-54
2021/11/01 16:41:53;;;;;;;3.67;3.45;;;;;;;;;;5029762;28;21162;-54
2021/11/01 16:44:32;;;;;;;4.07;3.97;;;;;;;;;;5028404;28;20041;-53
2021/11/01 16:46:59;;;;;;;3.20;3.10;;;;;;;;;;5015501;28;20054;-53
2021/11/01 16:49:30;;;;;;;1.98;1.90;;;;;;;;;;5029258;28;20497;-54
2021/11/01 16:51:59;;;;;;;2.42;2.33;;;;;;;;;;5026735;28;20144;-54
2021/11/01 16:54:30;;;;;;;3.92;3.83;;;;;;;;;;5026436;28;20037;-54
2021/11/01 17:02:44;;;;;;;1.58;1.58;;;;;;;;;;5028146;28;20095;-54
2021/11/01 17:08:00;;;;;;;1.75;1.65;;;;;;;;;;5018144;28;20041;-52
2021/11/01 18:38:26;;;;;;;2.03;1.92;;;;;;;;;;5028404;28;20140;-54
2021/11/01 18:41:15;;;;;;;1.27;1.27;;;;;;;;;;5039426;28;20508;-54
2021/11/01 18:51:44;;;;;;;1.20;1.20;;;;;;;;;;5026472;28;20148;-54
2021/11/01 18:54:19;;;;;;;1.10;1.00;;;;;;;;;;5024105;28;20072;-53
2021/11/01 18:56:48;;;;;;;1.00;1.00;;;;;;;;;;5025660;28;20044;-53
2021/11/01 18:59:16;;;;;;;1.33;1.33;;;;;;;;;;5031352;28;20087;-54
2021/11/01 19:01:43;;;;;;;1.10;1.10;;;;;;;;;;5031361;28;20690;-53
2021/11/01 19:04:31;;;;;;;0.98;0.98;;;;;;;;;;5024427;28;20432;-54
2021/11/01 19:07:11;;;;;;;1.35;1.35;;;;;;;;;;5031060;28;20739;-53
2021/11/01 20:13:20;;;;;;;2.17;1.33;;;;;;;;;;5023091;28;20536;-53
2021/11/01 20:16:08;;;;;;;4.90;4.70;;;;;;;;;;5019947;28;20034;-53
2021/11/01 21:25:23;;;;;;;0.80;0.80;;;;;;;;;;5017001;28;20056;-54
2021/11/01 21:27:50;;;;;;;1.05;1.02;;;;;;;;;;5023546;28;20100;-55
2021/11/01 21:30:17;;;;;;;1.10;1.10;;;;;;;;;;5030383;28;20049;-54
2021/11/01 21:32:44;;;;;;;1.30;1.20;;;;;;;;;;5030455;28;20049;-54
2021/11/01 21:35:16;;;;;;;0.80;0.80;;;;;;;;;;5029430;28;20084;-55
2021/11/01 21:37:44;;;;;;;1.92;0.80;;;;;;;;;;5028944;28;20137;-55
2021/11/01 21:40:12;;;;;;;3.35;1.55;;;;;;;;;;5025411;28;20144;-55
2021/11/01 21:42:40;;;;;;;0.80;0.80;;;;;;;;;;5028417;28;20495;-54
2021/11/01 21:45:07;;;;;;;0.80;0.80;;;;;;;;;;5030584;28;20045;-54
2021/11/01 21:47:35;;;;;;;0.80;0.80;;;;;;;;;;5023320;28;20050;-54
2021/11/01 21:50:03;;;;;;;0.80;0.80;;;;;;;;;;5016335;28;20049;-55
2021/11/01 21:52:30;;;;;;;0.80;0.80;;;;;;;;;;5020184;28;20063;-54
2021/11/01 21:54:58;;;;;;;0.88;0.80;;;;;;;;;;5026877;28;20040;-56
2021/11/01 22:21:24;;;;;;;0.80;0.80;;;;;;;;;;5028782;28;20116;-55
2021/11/01 22:48:43;;;;;;;0.80;0.80;;;;;;;;;;5024497;28;20038;-55
2021/11/01 22:56:49;;;;;;;0.98;0.98;;;;;;;;;;5022970;28;20034;-55
2021/11/01 22:59:17;;;;;;;0.93;0.93;;;;;;;;;;5024413;28;20045;-54
2021/11/01 23:01:46;;;;;;;0.80;0.80;;;;;;;;;;5015631;28;20081;-55
2021/11/01 23:04:27;;;;;;;0.80;0.80;;;;;;;;;;5029597;28;20084;-55
2021/11/01 23:31:56;;;;;;;0.70;0.70;;;;;;;;;;5024077;28;20092;-54
2021/11/01 23:34:22;;;;;;;1.33;0.70;;;;;;;;;;5016576;28;20470;-55
2021/11/01 23:36:49;;;;;;;1.95;0.70;;;;;;;;;;5026444;28;20041;-54
2021/11/01 23:39:16;;;;;;;0.75;0.75;;;;;;;;;;5018366;28;20647;-55
2021/11/01 23:41:44;;;;;;;0.70;0.70;;;;;;;;;;5032002;28;20029;-55
2021/11/01 23:44:11;;;;;;;1.23;1.23;;;;;;;;;;5024366;28;20038;-55
2021/11/01 23:46:38;;;;;;;0.80;0.80;;;;;;;;;;5021384;28;20501;-55
2021/11/01 23:49:05;;;;;;;0.73;0.73;;;;;;;;;;5030056;28;20042;-55
2021/11/01 23:51:35;;;;;;;1.27;0.90;;;;;;;;;;5030536;28;20052;-55
2021/11/01 23:56:49;;;;;;;0.80;0.80;;;;;;;;;;5025956;28;20493;-54
2021/11/01 23:59:16;;;;;;;12.93;0.93;;;;;;;;;;5029833;28;20061;-55
